createdAt,value
2022-08-01T00:01:32.344Z,14.30
2022-08-01T00:04:00.493Z,14.20
2022-08-01T00:06:28.725Z,14.20
2022-08-01T00:08:57.001Z,14.10
2022-08-01T00:11:25.287Z,14.00
2022-08-01T00:13:53.504Z,14.00
2022-08-01T00:16:23.713Z,13.90
2022-08-01T00:18:53.792Z,13.90
2022-08-01T00:21:22.242Z,13.90
2022-08-01T00:23:50.334Z,13.80
2022-08-01T00:26:18.488Z,13.70
2022-08-01T00:28:46.592Z,13.70
2022-08-01T00:31:14.681Z,13.70
2022-08-01T00:33:42.783Z,13.60
2022-08-01T00:36:12.318Z,13.60
2022-08-01T00:38:40.458Z,13.60
2022-08-01T00:41:08.569Z,13.50
2022-08-01T00:43:36.681Z,13.50
2022-08-01T00:46:04.783Z,13.50
2022-08-01T00:48:32.897Z,13.50
2022-08-01T00:51:01.118Z,13.50
2022-08-01T00:53:51.069Z,13.50
2022-08-01T00:56:19.481Z,13.60
2022-08-01T00:58:47.593Z,13.60
2022-08-01T01:01:18.636Z,13.60
2022-08-01T01:04:02.784Z,13.70
2022-08-01T01:06:44.303Z,13.80
2022-08-01T01:09:30.954Z,13.90
2022-08-01T01:12:08.277Z,13.90
2022-08-01T01:14:47.216Z,14.00
2022-08-01T01:17:50.388Z,14.10
2022-08-01T01:20:10.330Z,14.20
2022-08-01T01:22:52.793Z,14.30
2022-08-01T01:25:34.766Z,14.30
2022-08-01T01:28:10.690Z,14.40
2022-08-01T01:30:41.062Z,14.50
2022-08-01T01:33:12.126Z,14.60
2022-08-01T01:35:45.134Z,14.70
2022-08-01T01:38:19.357Z,14.80
2022-08-01T01:40:48.725Z,14.80
2022-08-01T01:43:18.657Z,14.90
2022-08-01T01:45:50.214Z,14.90
2022-08-01T01:48:24.931Z,15.00
2022-08-01T01:50:54.550Z,15.00
2022-08-01T01:53:24.685Z,15.00
2022-08-01T01:55:55.873Z,15.00
2022-08-01T01:58:26.399Z,15.10
2022-08-01T02:00:58.822Z,15.20
2022-08-01T02:03:33.236Z,15.20
2022-08-01T02:06:02.867Z,15.30
2022-08-01T02:08:33.145Z,15.30
2022-08-01T02:11:21.821Z,15.30
2022-08-01T02:13:55.003Z,15.30
2022-08-01T02:16:27.242Z,15.30
2022-08-01T02:18:55.925Z,15.30
2022-08-01T02:21:30.050Z,15.40
2022-08-01T02:24:06.157Z,15.40
2022-08-01T02:26:35.731Z,15.40
2022-08-01T02:29:10.489Z,15.40
2022-08-01T02:31:45.992Z,15.40
2022-08-01T02:34:18.996Z,15.50
2022-08-01T02:36:48.979Z,15.50
2022-08-01T02:39:20.680Z,15.60
2022-08-01T02:41:52.124Z,15.60
2022-08-01T02:44:26.080Z,15.60
2022-08-01T02:47:03.196Z,15.70
2022-08-01T02:49:35.417Z,15.70
2022-08-01T02:52:08.481Z,15.80
2022-08-01T02:54:38.419Z,15.90
2022-08-01T02:57:09.152Z,15.90
2022-08-01T02:59:45.029Z,16.00
2022-08-01T03:02:16.762Z,16.00
2022-08-01T03:04:46.251Z,16.00
2022-08-01T03:07:15.486Z,16.10
2022-08-01T03:09:47.909Z,16.10
2022-08-01T03:12:19.898Z,16.10
2022-08-01T03:14:50.336Z,16.20
2022-08-01T03:17:23.205Z,16.20
2022-08-01T03:19:53.781Z,16.20
2022-08-01T03:22:25.250Z,16.20
2022-08-01T03:24:55.607Z,16.10
2022-08-01T03:27:26.185Z,16.10
2022-08-01T03:29:58.532Z,16.10
2022-08-01T03:32:29.770Z,16.00
2022-08-01T03:34:58.344Z,16.00
2022-08-01T03:37:28.434Z,16.00
2022-08-01T03:40:00.911Z,16.10
2022-08-01T03:42:35.014Z,16.10
2022-08-01T03:45:13.415Z,16.10
2022-08-01T03:47:46.198Z,16.10
2022-08-01T03:50:17.910Z,16.10
2022-08-01T03:52:48.786Z,16.10
2022-08-01T03:55:18.966Z,16.10
2022-08-01T03:57:48.886Z,16.20
2022-08-01T04:00:19.541Z,16.20
2022-08-01T04:02:49.847Z,16.20
2022-08-01T04:05:18.429Z,16.30
2022-08-01T04:07:48.709Z,16.30
2022-08-01T04:10:16.929Z,16.50
2022-08-01T04:12:45.129Z,16.60
2022-08-01T04:15:13.395Z,16.60
2022-08-01T04:17:41.643Z,16.70
2022-08-01T04:20:13.289Z,16.80
2022-08-01T04:22:41.941Z,16.80
2022-08-01T04:25:14.525Z,16.80
2022-08-01T04:27:51.510Z,16.80
2022-08-01T04:30:23.089Z,16.80
2022-08-01T04:32:53.104Z,16.80
2022-08-01T04:36:03.720Z,16.80
2022-08-01T04:38:14.273Z,16.80
2022-08-01T04:40:43.211Z,16.80
2022-08-01T04:43:12.431Z,16.80
2022-08-01T04:45:44.761Z,16.80
2022-08-01T04:48:15.459Z,16.80
2022-08-01T04:50:45.459Z,16.70
2022-08-01T04:53:15.920Z,16.70
2022-08-01T04:55:44.118Z,16.70
2022-08-01T04:58:17.362Z,16.70
2022-08-01T05:00:46.781Z,16.70
2022-08-01T05:03:15.005Z,16.80
2022-08-01T05:05:44.550Z,16.80
2022-08-01T05:08:12.946Z,16.80
2022-08-01T05:10:41.205Z,16.90
2022-08-01T05:13:09.495Z,17.00
2022-08-01T05:15:38.715Z,17.00
2022-08-01T05:18:07.932Z,17.10
2022-08-01T05:20:37.976Z,17.10
2022-08-01T05:23:10.081Z,17.00
2022-08-01T05:25:57.144Z,17.00
2022-08-01T05:28:26.355Z,17.00
2022-08-01T05:30:55.959Z,17.10
2022-08-01T05:33:24.554Z,17.10
2022-08-01T05:35:53.163Z,17.10
2022-08-01T05:38:22.720Z,17.10
2022-08-01T05:40:50.925Z,17.20
2022-08-01T05:43:19.089Z,17.30
2022-08-01T05:45:47.273Z,17.40
2022-08-01T05:48:15.477Z,17.40
2022-08-01T05:50:43.698Z,17.50
2022-08-01T05:53:11.931Z,17.50
2022-08-01T05:55:41.497Z,17.60
2022-08-01T05:58:12.176Z,17.60
2022-08-01T06:00:40.994Z,17.60
2022-08-01T06:03:09.156Z,17.60
2022-08-01T06:05:37.606Z,17.70
2022-08-01T06:08:06.174Z,17.70
2022-08-01T06:10:34.338Z,17.70
2022-08-01T06:13:04.221Z,17.70
2022-08-01T06:15:32.388Z,17.70
2022-08-01T06:18:00.770Z,17.70
2022-08-01T06:20:28.834Z,17.70
2022-08-01T06:22:56.940Z,17.70
2022-08-01T06:25:28.053Z,17.70
2022-08-01T06:27:56.119Z,17.80
2022-08-01T06:30:26.047Z,17.80
2022-08-01T06:32:56.844Z,17.80
2022-08-01T06:35:24.902Z,17.80
2022-08-01T06:37:53.151Z,18.00
2022-08-01T06:40:21.240Z,18.20
2022-08-01T06:42:49.415Z,18.40
2022-08-01T06:45:18.342Z,18.80
2022-08-01T06:47:50.525Z,19.00
2022-08-01T06:50:19.298Z,19.10
2022-08-01T06:52:47.641Z,19.10
2022-08-01T06:55:16.034Z,19.20
2022-08-01T06:57:52.569Z,19.30
2022-08-01T07:00:23.620Z,19.30
2022-08-01T07:02:55.137Z,19.30
2022-08-01T07:05:23.959Z,19.40
2022-08-01T07:07:52.802Z,19.50
2022-08-01T07:10:21.410Z,19.70
2022-08-01T07:12:49.561Z,19.80
2022-08-01T07:15:17.756Z,19.70
2022-08-01T07:17:45.909Z,19.70
2022-08-01T07:20:16.996Z,19.80
2022-08-01T07:22:47.592Z,19.70
2022-08-01T07:25:17.309Z,19.80
2022-08-01T07:27:45.871Z,19.90
2022-08-01T07:30:14.675Z,19.90
2022-08-01T07:32:42.834Z,19.80
2022-08-01T07:35:11.516Z,19.80
2022-08-01T07:37:45.489Z,19.70
2022-08-01T07:40:18.600Z,19.60
2022-08-01T07:42:46.734Z,19.50
2022-08-01T07:45:16.040Z,19.50
2022-08-01T07:47:44.468Z,19.80
2022-08-01T07:50:13.785Z,20.10
2022-08-01T07:52:43.643Z,20.20
2022-08-01T07:55:16.275Z,20.20
2022-08-01T07:57:45.303Z,20.20
2022-08-01T08:00:14.543Z,20.20
2022-08-01T08:02:42.884Z,20.30
2022-08-01T08:05:11.863Z,20.30
2022-08-01T08:07:41.002Z,20.20
2022-08-01T08:10:11.780Z,20.00
2022-08-01T08:12:40.258Z,19.90
2022-08-01T08:15:09.324Z,19.70
2022-08-01T08:17:37.610Z,19.40
2022-08-01T08:20:09.250Z,19.30
2022-08-01T08:22:38.694Z,19.10
2022-08-01T08:25:08.496Z,19.00
2022-08-01T08:27:38.553Z,19.10
2022-08-01T08:30:09.561Z,19.30
2022-08-01T08:32:38.219Z,19.90
2022-08-01T08:35:07.676Z,20.60
2022-08-01T08:37:38.946Z,21.60
2022-08-01T08:40:09.353Z,23.00
2022-08-01T08:42:42.186Z,24.00
2022-08-01T08:45:12.382Z,24.00
2022-08-01T08:47:42.502Z,24.10
2022-08-01T08:50:11.591Z,24.20
2022-08-01T08:52:42.257Z,24.90
2022-08-01T08:55:12.284Z,26.30
2022-08-01T08:57:46.585Z,26.90
2022-08-01T09:00:17.331Z,26.60
2022-08-01T09:02:47.631Z,26.10
2022-08-01T09:05:19.481Z,25.60
2022-08-01T09:07:48.162Z,25.40
2022-08-01T09:10:16.419Z,25.10
2022-08-01T09:13:12.250Z,24.70
2022-08-01T09:15:45.542Z,24.40
2022-08-01T09:18:36.056Z,23.90
2022-08-01T09:21:16.301Z,24.00
2022-08-01T09:23:54.072Z,24.10
2022-08-01T09:26:34.093Z,24.20
2022-08-01T09:29:06.176Z,24.90
2022-08-01T09:31:47.697Z,26.30
2022-08-01T09:34:19.912Z,27.20
2022-08-01T09:36:54.579Z,27.20
2022-08-01T09:39:25.144Z,26.80
2022-08-01T09:41:54.866Z,26.20
2022-08-01T09:44:43.093Z,25.90
2022-08-01T09:47:15.501Z,25.50
2022-08-01T09:49:52.029Z,25.20
2022-08-01T09:52:25.694Z,25.60
2022-08-01T09:54:57.434Z,25.90
2022-08-01T09:57:26.465Z,26.00
2022-08-01T10:00:00.524Z,26.90
2022-08-01T10:02:32.484Z,28.60
2022-08-01T10:05:07.378Z,29.80
2022-08-01T10:07:43.979Z,30.70
2022-08-01T10:10:14.462Z,31.10
2022-08-01T10:12:45.472Z,31.10
2022-08-01T10:15:18.374Z,30.90
2022-08-01T10:17:52.887Z,30.50
2022-08-01T10:20:30.174Z,30.10
2022-08-01T10:23:05.633Z,29.60
2022-08-01T10:25:42.829Z,29.00
2022-08-01T10:28:18.171Z,27.90
2022-08-01T10:30:52.256Z,27.50
2022-08-01T10:33:52.321Z,27.60
2022-08-01T10:36:12.546Z,27.50
2022-08-01T10:38:41.679Z,27.80
2022-08-01T10:41:11.430Z,27.80
2022-08-01T10:43:39.542Z,28.10
2022-08-01T10:46:11.406Z,28.20
2022-08-01T10:48:49.202Z,28.60
2022-08-01T10:51:21.612Z,28.70
2022-08-01T10:53:54.021Z,28.50
2022-08-01T10:56:26.909Z,28.20
2022-08-01T10:59:06.310Z,28.80
2022-08-01T11:01:44.932Z,29.00
2022-08-01T11:04:17.812Z,29.20
2022-08-01T11:07:05.897Z,29.40
2022-08-01T11:09:43.000Z,29.20
2022-08-01T11:12:22.984Z,29.10
2022-08-01T11:15:30.177Z,29.00
2022-08-01T11:18:02.514Z,29.30
2022-08-01T11:20:34.208Z,28.50
2022-08-01T11:23:18.350Z,28.30
2022-08-01T11:26:10.670Z,28.50
2022-08-01T11:28:50.260Z,28.60
2022-08-01T11:31:37.124Z,28.00
2022-08-01T11:34:08.424Z,27.50
2022-08-01T11:36:58.228Z,27.60
2022-08-01T11:39:24.811Z,27.60
2022-08-01T11:41:54.952Z,27.80
2022-08-01T11:44:26.902Z,27.70
2022-08-01T11:47:01.459Z,27.70
2022-08-01T11:49:58.994Z,27.80
2022-08-01T11:52:29.075Z,28.00
2022-08-01T11:54:59.003Z,28.30
2022-08-01T11:57:33.941Z,28.30
2022-08-01T12:00:08.670Z,28.50
2022-08-01T12:02:45.249Z,28.60
2022-08-01T12:05:17.665Z,28.60
2022-08-01T12:07:47.351Z,27.50
2022-08-01T12:10:17.185Z,27.40
2022-08-01T12:12:47.487Z,27.40
2022-08-01T12:15:16.362Z,27.60
2022-08-01T12:17:57.660Z,27.10
2022-08-01T12:20:31.724Z,26.80
2022-08-01T12:23:02.054Z,26.60
2022-08-01T12:25:30.848Z,26.10
2022-08-01T12:28:03.625Z,25.90
2022-08-01T12:30:36.230Z,25.80
2022-08-01T12:33:06.442Z,25.50
2022-08-01T12:35:38.351Z,25.10
2022-08-01T12:38:08.917Z,24.70
2022-08-01T12:40:43.332Z,24.60
2022-08-01T12:43:27.592Z,24.50
2022-08-01T12:46:00.389Z,24.80
2022-08-01T12:48:29.878Z,25.10
2022-08-01T12:51:02.303Z,25.50
2022-08-01T12:53:40.491Z,25.70
2022-08-01T12:56:11.361Z,25.30
2022-08-01T12:58:40.063Z,24.30
2022-08-01T13:01:10.694Z,24.00
2022-08-01T13:03:39.469Z,24.10
2022-08-01T13:06:16.339Z,24.10
2022-08-01T13:08:45.565Z,24.40
2022-08-01T13:11:16.573Z,25.00
2022-08-01T13:13:48.451Z,25.40
2022-08-01T13:16:30.611Z,25.40
2022-08-01T13:19:07.684Z,25.50
2022-08-01T13:21:52.632Z,25.40
2022-08-01T13:24:26.911Z,25.30
2022-08-01T13:26:59.724Z,25.40
2022-08-01T13:29:33.398Z,25.50
2022-08-01T13:32:02.037Z,25.50
2022-08-01T13:34:33.853Z,25.20
2022-08-01T13:37:03.754Z,25.20
2022-08-01T13:39:46.867Z,25.30
2022-08-01T13:42:19.200Z,25.40
2022-08-01T13:44:47.863Z,25.70
2022-08-01T13:47:16.315Z,25.80
2022-08-01T13:49:45.576Z,26.00
2022-08-01T13:52:15.066Z,25.90
2022-08-01T13:54:43.181Z,25.80
2022-08-01T13:57:11.565Z,25.80
2022-08-01T13:59:39.782Z,25.70
2022-08-01T14:02:08.501Z,25.60
2022-08-01T14:04:36.777Z,25.70
2022-08-01T14:07:10.768Z,25.70
2022-08-01T14:09:57.851Z,25.80
2022-08-01T14:12:32.199Z,25.90
2022-08-01T14:15:01.265Z,25.50
2022-08-01T14:17:29.475Z,25.70
2022-08-01T14:20:00.379Z,26.20
2022-08-01T14:22:28.630Z,26.70
2022-08-01T14:25:01.595Z,27.00
2022-08-01T14:27:32.009Z,27.10
2022-08-01T14:30:03.862Z,27.00
2022-08-01T14:32:34.398Z,26.80
2022-08-01T14:35:02.725Z,26.40
2022-08-01T14:37:35.949Z,26.00
2022-08-01T14:40:10.508Z,26.00
2022-08-01T14:42:39.375Z,25.90
2022-08-01T14:45:10.498Z,25.80
2022-08-01T14:47:38.938Z,25.90
2022-08-01T14:50:10.124Z,25.60
2022-08-01T14:52:40.719Z,25.20
2022-08-01T14:55:13.773Z,24.80
2022-08-01T14:57:42.585Z,24.80
2022-08-01T15:00:13.703Z,24.50
2022-08-01T15:02:42.049Z,24.70
2022-08-01T15:05:11.203Z,24.80
2022-08-01T15:07:52.643Z,24.80
2022-08-01T15:10:24.085Z,24.70
2022-08-01T15:12:52.309Z,24.40
2022-08-01T15:15:21.014Z,24.10
2022-08-01T15:17:49.249Z,24.20
2022-08-01T15:20:17.628Z,24.30
2022-08-01T15:22:45.928Z,24.40
2022-08-01T15:25:14.045Z,24.50
2022-08-01T15:27:43.652Z,24.50
2022-08-01T15:30:12.687Z,24.10
2022-08-01T15:32:40.993Z,24.10
2022-08-01T15:35:11.358Z,24.20
2022-08-01T15:37:43.105Z,24.30
2022-08-01T15:40:12.603Z,24.20
2022-08-01T15:42:41.174Z,24.10
2022-08-01T15:45:37.390Z,24.10
2022-08-01T15:48:02.344Z,24.30
2022-08-01T15:50:30.471Z,24.10
2022-08-01T15:52:58.578Z,23.80
2022-08-01T15:55:26.719Z,23.70
2022-08-01T15:57:54.882Z,23.60
2022-08-01T16:00:24.428Z,23.50
2022-08-01T16:03:01.161Z,23.30
2022-08-01T16:05:29.370Z,23.30
2022-08-01T16:08:01.599Z,23.40
2022-08-01T16:10:30.568Z,23.30
2022-08-01T16:12:58.978Z,23.40
2022-08-01T16:15:37.865Z,23.50
2022-08-01T16:18:07.022Z,23.50
2022-08-01T16:20:35.342Z,23.40
2022-08-01T16:23:04.058Z,23.40
2022-08-01T16:25:32.214Z,23.60
2022-08-01T16:28:00.382Z,23.80
2022-08-01T16:30:28.516Z,23.80
2022-08-01T16:33:02.637Z,23.80
2022-08-01T16:35:44.040Z,23.90
2022-08-01T16:38:14.135Z,23.90
2022-08-01T16:40:47.392Z,23.60
2022-08-01T16:43:16.706Z,23.60
2022-08-01T16:45:45.164Z,23.50
2022-08-01T16:48:17.500Z,23.30
2022-08-01T16:50:49.288Z,23.00
2022-08-01T16:53:18.964Z,22.80
2022-08-01T16:55:50.512Z,22.70
2022-08-01T16:58:27.244Z,22.70
2022-08-01T17:00:57.622Z,22.60
2022-08-01T17:03:51.332Z,22.60
2022-08-01T17:06:17.466Z,22.60
2022-08-01T17:08:47.207Z,22.50
2022-08-01T17:11:16.126Z,22.50
2022-08-01T17:13:44.336Z,22.50
2022-08-01T17:16:13.156Z,22.30
2022-08-01T17:18:42.671Z,22.30
2022-08-01T17:21:10.895Z,22.10
2022-08-01T17:23:39.025Z,22.10
2022-08-01T17:26:07.403Z,22.00
2022-08-01T17:28:35.521Z,22.00
2022-08-01T17:31:03.668Z,21.90
2022-08-01T17:33:45.358Z,21.90
2022-08-01T17:36:17.874Z,21.90
2022-08-01T17:38:46.072Z,21.90
2022-08-01T17:41:14.510Z,21.80
2022-08-01T17:43:42.661Z,21.80
2022-08-01T17:46:10.813Z,21.80
2022-08-01T17:48:38.939Z,21.80
2022-08-01T17:51:07.462Z,21.70
2022-08-01T17:53:37.251Z,21.70
2022-08-01T17:56:24.486Z,21.60
2022-08-01T17:58:52.637Z,21.50
2022-08-01T18:01:21.702Z,21.40
2022-08-01T18:03:54.953Z,21.30
2022-08-01T18:06:23.743Z,21.20
2022-08-01T18:08:55.565Z,21.20
2022-08-01T18:11:27.582Z,21.10
2022-08-01T18:13:56.667Z,21.00
2022-08-01T18:16:26.284Z,20.90
2022-08-01T18:18:56.022Z,20.80
2022-08-01T18:21:24.207Z,20.80
2022-08-01T18:23:53.657Z,20.70
2022-08-01T18:26:22.092Z,20.60
2022-08-01T18:28:50.289Z,20.50
2022-08-01T18:31:20.601Z,20.40
2022-08-01T18:33:49.235Z,20.40
2022-08-01T18:36:31.392Z,20.30
2022-08-01T18:39:05.285Z,20.10
2022-08-01T18:41:34.676Z,19.90
2022-08-01T18:44:05.551Z,19.80
2022-08-01T18:46:37.821Z,19.60
2022-08-01T18:49:07.820Z,19.40
2022-08-01T18:51:43.033Z,19.20
2022-08-01T18:54:14.059Z,19.00
2022-08-01T18:56:43.305Z,18.80
2022-08-01T18:59:11.696Z,18.70
2022-08-01T19:01:40.227Z,18.50
2022-08-01T19:04:09.029Z,18.30
2022-08-01T19:06:37.154Z,18.20
2022-08-01T19:09:06.213Z,18.10
2022-08-01T19:11:36.289Z,17.90
2022-08-01T19:14:04.689Z,17.80
2022-08-01T19:16:33.969Z,17.60
2022-08-01T19:19:05.479Z,17.50
2022-08-01T19:21:35.189Z,17.40
2022-08-01T19:24:23.612Z,17.30
2022-08-01T19:26:55.033Z,17.10
2022-08-01T19:29:35.229Z,17.00
2022-08-01T19:32:06.876Z,16.90
2022-08-01T19:34:37.585Z,16.80
2022-08-01T19:37:06.353Z,16.70
2022-08-01T19:39:34.792Z,16.60
2022-08-01T19:42:05.644Z,16.60
2022-08-01T19:44:34.790Z,16.50
2022-08-01T19:47:03.318Z,16.40
2022-08-01T19:49:31.557Z,16.30
2022-08-01T19:52:02.563Z,16.20
2022-08-01T19:54:35.413Z,16.10
2022-08-01T19:57:06.887Z,16.00
2022-08-01T19:59:36.949Z,15.90
2022-08-01T20:02:07.551Z,15.80
2022-08-01T20:04:37.363Z,15.70
2022-08-01T20:07:05.755Z,15.60
2022-08-01T20:09:35.390Z,15.60
2022-08-01T20:12:05.654Z,15.50
2022-08-01T20:14:34.238Z,15.40
2022-08-01T20:17:02.483Z,15.40
2022-08-01T20:19:32.564Z,15.40
2022-08-01T20:22:04.141Z,15.30
2022-08-01T20:24:38.223Z,15.20
2022-08-01T20:27:12.054Z,15.10
2022-08-01T20:29:41.387Z,15.10
2022-08-01T20:32:09.806Z,15.00
2022-08-01T20:34:40.287Z,15.00
2022-08-01T20:37:12.976Z,14.90
2022-08-01T20:39:45.062Z,14.90
2022-08-01T20:42:15.426Z,14.80
2022-08-01T20:44:45.378Z,14.70
2022-08-01T20:47:14.984Z,14.70
2022-08-01T20:49:45.246Z,14.60
2022-08-01T20:52:13.640Z,14.60
2022-08-01T20:54:42.527Z,14.60
2022-08-01T20:57:16.995Z,14.50
2022-08-01T20:59:55.877Z,14.40
2022-08-01T21:02:51.478Z,14.40
2022-08-01T21:05:29.437Z,14.40
2022-08-01T21:08:04.381Z,14.30
2022-08-01T21:10:33.772Z,14.30
2022-08-01T21:13:06.278Z,14.30
2022-08-01T21:15:59.826Z,14.20
2022-08-01T21:18:36.622Z,14.20
2022-08-01T21:21:09.105Z,14.10
2022-08-01T21:23:46.688Z,14.00
2022-08-01T21:26:15.427Z,14.00
2022-08-01T21:28:53.802Z,14.00
2022-08-01T21:31:23.753Z,13.90
2022-08-01T21:34:02.263Z,13.90
2022-08-01T21:36:31.946Z,13.80
2022-08-01T21:39:01.848Z,13.80
2022-08-01T21:42:01.313Z,13.70
2022-08-01T21:44:24.115Z,13.60
2022-08-01T21:46:59.504Z,13.60
2022-08-01T21:49:27.774Z,13.50
2022-08-01T21:52:01.022Z,13.50
2022-08-01T21:54:34.891Z,13.40
2022-08-01T21:57:07.347Z,13.40
2022-08-01T21:59:47.071Z,13.40
2022-08-01T22:02:21.651Z,13.40
2022-08-01T22:04:53.387Z,13.30
2022-08-01T22:07:23.407Z,13.30
2022-08-01T22:09:52.097Z,13.30
2022-08-01T22:12:21.704Z,13.30
2022-08-01T22:14:56.619Z,13.20
2022-08-01T22:17:25.751Z,13.20
2022-08-01T22:19:55.350Z,13.10
2022-08-01T22:22:44.168Z,13.10
2022-08-01T22:25:13.525Z,13.10
2022-08-01T22:28:08.319Z,13.00
2022-08-01T22:30:33.291Z,13.00
2022-08-01T22:33:15.465Z,13.00
2022-08-01T22:35:46.796Z,12.90
2022-08-01T22:38:15.242Z,12.90
2022-08-01T22:40:50.688Z,12.90
2022-08-01T22:43:31.348Z,12.80
2022-08-01T22:46:22.584Z,12.80
2022-08-01T22:48:53.858Z,12.80
2022-08-01T22:51:32.658Z,12.70
2022-08-01T22:54:05.954Z,12.70
2022-08-01T22:56:39.195Z,12.70
2022-08-01T22:59:12.496Z,12.70
2022-08-01T23:01:47.731Z,12.70
2022-08-01T23:04:33.348Z,12.60
2022-08-01T23:07:06.026Z,12.60
2022-08-01T23:09:54.466Z,12.60
2022-08-01T23:12:25.701Z,12.50
2022-08-01T23:14:55.951Z,12.50
2022-08-01T23:17:28.792Z,12.50
2022-08-01T23:19:59.251Z,12.50
2022-08-01T23:22:31.326Z,12.40
2022-08-01T23:25:05.354Z,12.40
2022-08-01T23:27:51.625Z,12.40
2022-08-01T23:30:28.868Z,12.40
2022-08-01T23:32:58.674Z,12.30
2022-08-01T23:35:27.474Z,12.30
2022-08-01T23:37:58.768Z,12.30
2022-08-01T23:40:32.067Z,12.30
2022-08-01T23:43:00.722Z,12.30
2022-08-01T23:45:28.955Z,12.20
2022-08-01T23:48:18.581Z,12.20
2022-08-01T23:50:46.687Z,12.10
2022-08-01T23:53:14.932Z,12.10
2022-08-01T23:55:44.425Z,12.10
2022-08-01T23:58:12.724Z,12.10
